CheckWX is a tool to help pilots better visualize weather data.  It is not intended as a substitute for an official pre-flight weather briefing.

10:47:03 UTC

KLGB TAF
Long Beach / Daugherty Field / Airport
Long Beach, California, USA
KLGB 180531Z 1806/1906 VRB03KT P6SM SCT250 FM181800 19006KT P6SM SCT250 FM182300 29010KT P6SM SCT250 FM190400 VRB03KT P6SM SCT250

Apr-18@
06:00 UTC

Apr-18 @ 06:00 UTC

Apr-18@
18:00 UTC

Apr-18 @ 18:00 UTC

KLGB 180531Z 1806/1906 VRB03KT P6SM SCT250
Wind
  • Variable at 3 KTS
Cloud Levels
  • Scattered at 25,000' AGL

Apr-18@
18:00 UTC

Apr-18 @ 18:00 UTC

Apr-18@
23:00 UTC

Apr-18 @ 23:00 UTC

FM181800 19006KT P6SM SCT250

From

From Standard forecast or significant change

Wind
  • 190° at 6 KTS
Cloud Levels
  • Scattered at 25,000' AGL

Apr-18@
23:00 UTC

Apr-18 @ 23:00 UTC

Apr-19@
04:00 UTC

Apr-19 @ 04:00 UTC

FM182300 29010KT P6SM SCT250

From

From Standard forecast or significant change

Wind
  • 290° at 10 KTS
Cloud Levels
  • Scattered at 25,000' AGL

Apr-19@
04:00 UTC

Apr-19 @ 04:00 UTC

Apr-19@
06:00 UTC

Apr-19 @ 06:00 UTC

FM190400 VRB03KT P6SM SCT250

From

From Standard forecast or significant change

Wind
  • Variable at 3 KTS
Cloud Levels
  • Scattered at 25,000' AGL